sensor_id;sensor_type;location;lat;lon;timestamp;P1;durP1;ratioP1;P2;durP2;ratioP2
23496;SDS011;11925;48.122;11.560;2023-03-01T00:01:22;18.85;;;12.73;;
23496;SDS011;11925;48.122;11.560;2023-03-01T00:03:52;19.38;;;12.93;;
23496;SDS011;11925;48.122;11.560;2023-03-01T00:06:21;19.35;;;12.85;;
23496;SDS011;11925;48.122;11.560;2023-03-01T00:08:51;18.73;;;12.88;;
23496;SDS011;11925;48.122;11.560;2023-03-01T00:11:20;22.48;;;13.98;;
23496;SDS011;11925;48.122;11.560;2023-03-01T00:13:50;20.65;;;13.50;;
23496;SDS011;11925;48.122;11.560;2023-03-01T00:16:20;19.63;;;12.48;;
23496;SDS011;11925;48.122;11.560;2023-03-01T00:18:51;22.92;;;13.68;;
23496;SDS011;11925;48.122;11.560;2023-03-01T00:21:21;19.10;;;13.23;;
23496;SDS011;11925;48.122;11.560;2023-03-01T00:23:51;19.58;;;12.88;;
23496;SDS011;11925;48.122;11.560;2023-03-01T00:26:21;18.88;;;13.32;;
23496;SDS011;11925;48.122;11.560;2023-03-01T00:28:50;19.63;;;13.10;;
23496;SDS011;11925;48.122;11.560;2023-03-01T00:31:20;19.02;;;13.23;;
23496;SDS011;11925;48.122;11.560;2023-03-01T00:33:51;18.33;;;12.88;;
23496;SDS011;11925;48.122;11.560;2023-03-01T00:36:23;19.88;;;13.05;;
23496;SDS011;11925;48.122;11.560;2023-03-01T00:38:54;20.77;;;12.93;;
23496;SDS011;11925;48.122;11.560;2023-03-01T00:41:23;19.63;;;12.75;;
23496;SDS011;11925;48.122;11.560;2023-03-01T00:43:53;19.80;;;12.77;;
23496;SDS011;11925;48.122;11.560;2023-03-01T00:46:22;20.00;;;12.82;;
23496;SDS011;11925;48.122;11.560;2023-03-01T00:48:52;21.15;;;13.45;;
23496;SDS011;11925;48.122;11.560;2023-03-01T00:51:21;19.08;;;12.40;;
23496;SDS011;11925;48.122;11.560;2023-03-01T00:53:52;19.33;;;13.68;;
23496;SDS011;11925;48.122;11.560;2023-03-01T00:56:25;20.63;;;13.13;;
23496;SDS011;11925;48.122;11.560;2023-03-01T00:58:54;17.92;;;12.55;;
23496;SDS011;11925;48.122;11.560;2023-03-01T01:01:24;17.08;;;12.43;;
23496;SDS011;11925;48.122;11.560;2023-03-01T01:03:57;18.70;;;12.77;;
23496;SDS011;11925;48.122;11.560;2023-03-01T01:06:27;20.80;;;13.10;;
23496;SDS011;11925;48.122;11.560;2023-03-01T01:08:57;19.50;;;13.38;;
23496;SDS011;11925;48.122;11.560;2023-03-01T01:11:27;19.67;;;13.40;;
23496;SDS011;11925;48.122;11.560;2023-03-01T01:13:57;18.73;;;12.57;;
23496;SDS011;11925;48.122;11.560;2023-03-01T01:16:28;18.70;;;12.90;;
23496;SDS011;11925;48.122;11.560;2023-03-01T01:18:57;20.15;;;13.15;;
23496;SDS011;11925;48.122;11.560;2023-03-01T01:21:26;18.55;;;12.60;;
23496;SDS011;11925;48.122;11.560;2023-03-01T01:23:55;18.17;;;12.38;;
23496;SDS011;11925;48.122;11.560;2023-03-01T01:26:24;17.33;;;12.90;;
23496;SDS011;11925;48.122;11.560;2023-03-01T01:28:56;19.35;;;13.35;;
23496;SDS011;11925;48.122;11.560;2023-03-01T01:31:25;19.02;;;12.65;;
23496;SDS011;11925;48.122;11.560;2023-03-01T01:33:56;18.83;;;13.38;;
23496;SDS011;11925;48.122;11.560;2023-03-01T01:36:25;19.25;;;12.90;;
23496;SDS011;11925;48.122;11.560;2023-03-01T01:38:54;19.55;;;12.95;;
23496;SDS011;11925;48.122;11.560;2023-03-01T01:41:24;20.17;;;13.27;;
23496;SDS011;11925;48.122;11.560;2023-03-01T01:46:46;20.70;;;13.25;;
23496;SDS011;11925;48.122;11.560;2023-03-01T01:49:19;21.38;;;12.77;;
23496;SDS011;11925;48.122;11.560;2023-03-01T01:51:55;20.15;;;12.77;;
23496;SDS011;11925;48.122;11.560;2023-03-01T01:54:30;19.38;;;12.80;;
23496;SDS011;11925;48.122;11.560;2023-03-01T01:57:10;19.30;;;13.27;;
23496;SDS011;11925;48.122;11.560;2023-03-01T01:59:43;17.95;;;12.65;;
23496;SDS011;11925;48.122;11.560;2023-03-01T02:02:15;19.75;;;13.50;;
23496;SDS011;11925;48.122;11.560;2023-03-01T02:04:44;19.63;;;13.02;;
23496;SDS011;11925;48.122;11.560;2023-03-01T02:07:15;20.85;;;13.20;;
23496;SDS011;11925;48.122;11.560;2023-03-01T02:09:46;17.55;;;12.93;;
23496;SDS011;11925;48.122;11.560;2023-03-01T02:12:17;19.27;;;13.43;;
23496;SDS011;11925;48.122;11.560;2023-03-01T02:14:49;17.92;;;12.75;;
23496;SDS011;11925;48.122;11.560;2023-03-01T02:17:18;18.95;;;12.80;;
23496;SDS011;11925;48.122;11.560;2023-03-01T02:19:50;19.30;;;12.45;;
23496;SDS011;11925;48.122;11.560;2023-03-01T02:22:30;18.70;;;13.40;;
23496;SDS011;11925;48.122;11.560;2023-03-01T02:25:03;19.83;;;13.00;;
23496;SDS011;11925;48.122;11.560;2023-03-01T02:27:47;21.48;;;14.27;;
23496;SDS011;11925;48.122;11.560;2023-03-01T02:30:25;20.73;;;12.75;;
23496;SDS011;11925;48.122;11.560;2023-03-01T02:32:54;19.42;;;13.25;;
23496;SDS011;11925;48.122;11.560;2023-03-01T02:35:29;19.13;;;12.85;;
23496;SDS011;11925;48.122;11.560;2023-03-01T02:38:01;20.70;;;13.40;;
23496;SDS011;11925;48.122;11.560;2023-03-01T02:40:31;19.30;;;13.32;;
23496;SDS011;11925;48.122;11.560;2023-03-01T02:43:01;20.60;;;13.00;;
23496;SDS011;11925;48.122;11.560;2023-03-01T02:45:34;18.23;;;13.27;;
23496;SDS011;11925;48.122;11.560;2023-03-01T02:48:02;20.60;;;13.27;;
23496;SDS011;11925;48.122;11.560;2023-03-01T02:50:41;19.58;;;12.70;;
23496;SDS011;11925;48.122;11.560;2023-03-01T02:53:19;19.42;;;13.20;;
23496;SDS011;11925;48.122;11.560;2023-03-01T02:55:55;18.65;;;13.90;;
23496;SDS011;11925;48.122;11.560;2023-03-01T02:58:23;20.90;;;13.00;;
23496;SDS011;11925;48.122;11.560;2023-03-01T03:00:54;17.58;;;12.52;;
23496;SDS011;11925;48.122;11.560;2023-03-01T03:03:22;19.10;;;13.15;;
23496;SDS011;11925;48.122;11.560;2023-03-01T03:05:51;17.98;;;12.88;;
23496;SDS011;11925;48.122;11.560;2023-03-01T03:08:19;20.17;;;12.90;;
23496;SDS011;11925;48.122;11.560;2023-03-01T03:10:51;20.92;;;12.93;;
23496;SDS011;11925;48.122;11.560;2023-03-01T03:13:21;18.23;;;13.10;;
23496;SDS011;11925;48.122;11.560;2023-03-01T03:15:56;18.80;;;13.13;;
23496;SDS011;11925;48.122;11.560;2023-03-01T03:18:24;17.27;;;12.77;;
23496;SDS011;11925;48.122;11.560;2023-03-01T03:20:53;19.60;;;13.25;;
23496;SDS011;11925;48.122;11.560;2023-03-01T03:23:22;18.15;;;12.60;;
23496;SDS011;11925;48.122;11.560;2023-03-01T03:25:50;19.48;;;13.15;;
23496;SDS011;11925;48.122;11.560;2023-03-01T03:28:18;20.95;;;12.70;;
23496;SDS011;11925;48.122;11.560;2023-03-01T03:30:47;19.80;;;13.65;;
23496;SDS011;11925;48.122;11.560;2023-03-01T03:33:17;16.65;;;11.65;;
23496;SDS011;11925;48.122;11.560;2023-03-01T03:35:46;21.60;;;12.63;;
23496;SDS011;11925;48.122;11.560;2023-03-01T03:38:25;17.80;;;12.18;;
23496;SDS011;11925;48.122;11.560;2023-03-01T03:40:59;18.08;;;12.65;;
23496;SDS011;11925;48.122;11.560;2023-03-01T03:43:29;19.52;;;12.65;;
23496;SDS011;11925;48.122;11.560;2023-03-01T03:45:59;19.77;;;13.23;;
23496;SDS011;11925;48.122;11.560;2023-03-01T03:48:32;20.23;;;13.38;;
23496;SDS011;11925;48.122;11.560;2023-03-01T03:51:01;19.83;;;13.20;;
23496;SDS011;11925;48.122;11.560;2023-03-01T03:53:33;21.45;;;13.75;;
23496;SDS011;11925;48.122;11.560;2023-03-01T03:56:01;18.30;;;12.70;;
23496;SDS011;11925;48.122;11.560;2023-03-01T03:58:32;20.30;;;13.77;;
23496;SDS011;11925;48.122;11.560;2023-03-01T04:01:00;19.52;;;13.07;;
23496;SDS011;11925;48.122;11.560;2023-03-01T04:03:29;21.15;;;13.30;;
23496;SDS011;11925;48.122;11.560;2023-03-01T04:06:00;18.67;;;13.20;;
23496;SDS011;11925;48.122;11.560;2023-03-01T04:08:28;19.08;;;13.50;;
23496;SDS011;11925;48.122;11.560;2023-03-01T04:10:59;20.40;;;12.98;;
23496;SDS011;11925;48.122;11.560;2023-03-01T04:13:50;19.67;;;13.75;;
23496;SDS011;11925;48.122;11.560;2023-03-01T04:16:20;19.48;;;13.70;;
23496;SDS011;11925;48.122;11.560;2023-03-01T04:18:48;19.13;;;13.68;;
23496;SDS011;11925;48.122;11.560;2023-03-01T04:21:17;19.02;;;13.57;;
23496;SDS011;11925;48.122;11.560;2023-03-01T04:23:46;18.23;;;12.85;;
23496;SDS011;11925;48.122;11.560;2023-03-01T04:26:20;18.80;;;13.25;;
23496;SDS011;11925;48.122;11.560;2023-03-01T04:28:48;20.42;;;13.63;;
23496;SDS011;11925;48.122;11.560;2023-03-01T04:31:17;20.52;;;12.70;;
23496;SDS011;11925;48.122;11.560;2023-03-01T04:33:48;19.38;;;13.27;;
23496;SDS011;11925;48.122;11.560;2023-03-01T04:36:20;19.80;;;13.40;;
23496;SDS011;11925;48.122;11.560;2023-03-01T04:38:50;14.43;;;9.88;;
23496;SDS011;11925;48.122;11.560;2023-03-01T04:41:21;19.92;;;13.60;;
23496;SDS011;11925;48.122;11.560;2023-03-01T04:43:52;20.02;;;13.68;;
23496;SDS011;11925;48.122;11.560;2023-03-01T04:46:20;20.77;;;14.77;;
23496;SDS011;11925;48.122;11.560;2023-03-01T04:48:55;20.25;;;14.15;;
23496;SDS011;11925;48.122;11.560;2023-03-01T04:51:23;19.42;;;13.73;;
23496;SDS011;11925;48.122;11.560;2023-03-01T04:53:51;19.83;;;13.80;;
23496;SDS011;11925;48.122;11.560;2023-03-01T04:56:21;19.15;;;13.20;;
23496;SDS011;11925;48.122;11.560;2023-03-01T04:58:52;19.17;;;13.05;;
23496;SDS011;11925;48.122;11.560;2023-03-01T05:01:21;20.83;;;13.60;;
23496;SDS011;11925;48.122;11.560;2023-03-01T05:03:50;19.55;;;14.00;;
23496;SDS011;11925;48.122;11.560;2023-03-01T05:06:19;21.65;;;14.30;;
23496;SDS011;11925;48.122;11.560;2023-03-01T05:08:48;19.33;;;13.23;;
23496;SDS011;11925;48.122;11.560;2023-03-01T05:11:16;19.55;;;13.45;;
23496;SDS011;11925;48.122;11.560;2023-03-01T05:13:46;20.77;;;14.35;;
23496;SDS011;11925;48.122;11.560;2023-03-01T05:16:16;21.58;;;14.10;;
23496;SDS011;11925;48.122;11.560;2023-03-01T05:18:46;22.25;;;14.07;;
23496;SDS011;11925;48.122;11.560;2023-03-01T05:21:17;22.47;;;13.87;;
23496;SDS011;11925;48.122;11.560;2023-03-01T05:23:45;20.63;;;14.13;;
23496;SDS011;11925;48.122;11.560;2023-03-01T05:26:13;19.75;;;13.90;;
23496;SDS011;11925;48.122;11.560;2023-03-01T05:29:00;19.77;;;13.60;;
23496;SDS011;11925;48.122;11.560;2023-03-01T05:31:28;18.27;;;12.80;;
23496;SDS011;11925;48.122;11.560;2023-03-01T05:33:57;19.52;;;13.85;;
23496;SDS011;11925;48.122;11.560;2023-03-01T05:36:25;23.17;;;15.13;;
23496;SDS011;11925;48.122;11.560;2023-03-01T05:38:54;18.80;;;13.30;;
23496;SDS011;11925;48.122;11.560;2023-03-01T05:41:23;20.98;;;14.18;;
23496;SDS011;11925;48.122;11.560;2023-03-01T05:43:51;20.00;;;13.05;;
23496;SDS011;11925;48.122;11.560;2023-03-01T05:46:21;20.33;;;13.68;;
23496;SDS011;11925;48.122;11.560;2023-03-01T05:48:50;22.83;;;13.50;;
23496;SDS011;11925;48.122;11.560;2023-03-01T05:51:19;22.38;;;14.20;;
23496;SDS011;11925;48.122;11.560;2023-03-01T05:53:48;19.88;;;13.98;;
23496;SDS011;11925;48.122;11.560;2023-03-01T05:56:16;20.42;;;13.48;;
23496;SDS011;11925;48.122;11.560;2023-03-01T05:58:45;21.48;;;13.65;;
23496;SDS011;11925;48.122;11.560;2023-03-01T06:01:15;19.77;;;14.32;;
23496;SDS011;11925;48.122;11.560;2023-03-01T06:03:45;19.65;;;13.57;;
23496;SDS011;11925;48.122;11.560;2023-03-01T06:06:13;20.65;;;14.05;;
23496;SDS011;11925;48.122;11.560;2023-03-01T06:08:41;19.88;;;14.38;;
23496;SDS011;11925;48.122;11.560;2023-03-01T06:11:09;22.10;;;13.98;;
23496;SDS011;11925;48.122;11.560;2023-03-01T06:13:38;21.35;;;14.85;;
23496;SDS011;11925;48.122;11.560;2023-03-01T06:16:06;20.30;;;14.35;;
23496;SDS011;11925;48.122;11.560;2023-03-01T06:18:35;21.60;;;14.48;;
23496;SDS011;11925;48.122;11.560;2023-03-01T06:21:06;18.10;;;12.82;;
23496;SDS011;11925;48.122;11.560;2023-03-01T06:23:35;16.98;;;10.75;;
23496;SDS011;11925;48.122;11.560;2023-03-01T06:26:05;19.50;;;13.57;;
23496;SDS011;11925;48.122;11.560;2023-03-01T06:28:34;20.52;;;14.25;;
23496;SDS011;11925;48.122;11.560;2023-03-01T06:31:03;20.48;;;13.70;;
23496;SDS011;11925;48.122;11.560;2023-03-01T06:33:35;20.08;;;14.43;;
23496;SDS011;11925;48.122;11.560;2023-03-01T06:36:03;21.52;;;14.18;;
23496;SDS011;11925;48.122;11.560;2023-03-01T06:38:34;23.50;;;14.70;;
23496;SDS011;11925;48.122;11.560;2023-03-01T06:41:02;22.35;;;14.52;;
23496;SDS011;11925;48.122;11.560;2023-03-01T06:43:31;22.17;;;14.00;;
23496;SDS011;11925;48.122;11.560;2023-03-01T06:45:59;22.58;;;15.02;;
23496;SDS011;11925;48.122;11.560;2023-03-01T06:48:27;21.55;;;14.60;;
23496;SDS011;11925;48.122;11.560;2023-03-01T06:50:57;23.40;;;14.57;;
23496;SDS011;11925;48.122;11.560;2023-03-01T06:53:28;21.52;;;15.07;;
23496;SDS011;11925;48.122;11.560;2023-03-01T06:55:56;23.00;;;13.73;;
23496;SDS011;11925;48.122;11.560;2023-03-01T06:58:26;21.05;;;14.13;;
23496;SDS011;11925;48.122;11.560;2023-03-01T07:00:55;20.70;;;14.57;;
23496;SDS011;11925;48.122;11.560;2023-03-01T07:03:23;21.17;;;14.75;;
23496;SDS011;11925;48.122;11.560;2023-03-01T07:05:51;21.38;;;14.38;;
23496;SDS011;11925;48.122;11.560;2023-03-01T07:08:19;20.45;;;14.20;;
23496;SDS011;11925;48.122;11.560;2023-03-01T07:10:49;21.17;;;13.98;;
23496;SDS011;11925;48.122;11.560;2023-03-01T07:13:22;21.90;;;15.25;;
23496;SDS011;11925;48.122;11.560;2023-03-01T07:15:51;21.40;;;13.98;;
23496;SDS011;11925;48.122;11.560;2023-03-01T07:18:19;22.35;;;14.98;;
23496;SDS011;11925;48.122;11.560;2023-03-01T07:20:47;21.33;;;14.50;;
23496;SDS011;11925;48.122;11.560;2023-03-01T07:23:16;23.08;;;14.65;;
23496;SDS011;11925;48.122;11.560;2023-03-01T07:25:44;21.42;;;14.32;;
23496;SDS011;11925;48.122;11.560;2023-03-01T07:28:22;21.40;;;15.05;;
23496;SDS011;11925;48.122;11.560;2023-03-01T07:30:50;20.42;;;14.70;;
23496;SDS011;11925;48.122;11.560;2023-03-01T07:33:19;23.73;;;15.38;;
23496;SDS011;11925;48.122;11.560;2023-03-01T07:35:47;23.98;;;14.65;;
23496;SDS011;11925;48.122;11.560;2023-03-01T07:38:16;22.10;;;14.73;;
23496;SDS011;11925;48.122;11.560;2023-03-01T07:40:44;22.88;;;14.65;;
23496;SDS011;11925;48.122;11.560;2023-03-01T07:43:14;23.48;;;14.98;;
23496;SDS011;11925;48.122;11.560;2023-03-01T07:45:42;22.85;;;14.98;;
23496;SDS011;11925;48.122;11.560;2023-03-01T07:48:10;23.55;;;15.75;;
23496;SDS011;11925;48.122;11.560;2023-03-01T07:50:39;25.67;;;15.52;;
23496;SDS011;11925;48.122;11.560;2023-03-01T07:53:07;22.95;;;15.10;;
23496;SDS011;11925;48.122;11.560;2023-03-01T07:55:36;21.77;;;15.23;;
23496;SDS011;11925;48.122;11.560;2023-03-01T07:58:04;25.25;;;15.30;;
23496;SDS011;11925;48.122;11.560;2023-03-01T08:00:34;24.00;;;15.10;;
23496;SDS011;11925;48.122;11.560;2023-03-01T08:03:02;25.38;;;15.07;;
23496;SDS011;11925;48.122;11.560;2023-03-01T08:05:33;25.33;;;14.73;;
23496;SDS011;11925;48.122;11.560;2023-03-01T08:08:01;23.38;;;14.80;;
23496;SDS011;11925;48.122;11.560;2023-03-01T08:10:31;23.30;;;15.07;;
23496;SDS011;11925;48.122;11.560;2023-03-01T08:12:59;21.35;;;14.27;;
23496;SDS011;11925;48.122;11.560;2023-03-01T08:15:28;22.02;;;14.35;;
23496;SDS011;11925;48.122;11.560;2023-03-01T08:17:57;22.58;;;14.55;;
23496;SDS011;11925;48.122;11.560;2023-03-01T08:20:25;23.42;;;15.15;;
23496;SDS011;11925;48.122;11.560;2023-03-01T08:22:54;25.65;;;15.73;;
23496;SDS011;11925;48.122;11.560;2023-03-01T08:25:22;23.67;;;14.85;;
23496;SDS011;11925;48.122;11.560;2023-03-01T08:27:50;24.20;;;15.95;;
23496;SDS011;11925;48.122;11.560;2023-03-01T08:30:18;25.85;;;15.63;;
23496;SDS011;11925;48.122;11.560;2023-03-01T08:32:47;23.95;;;15.02;;
23496;SDS011;11925;48.122;11.560;2023-03-01T08:35:16;23.83;;;15.52;;
23496;SDS011;11925;48.122;11.560;2023-03-01T08:37:46;25.02;;;15.82;;
23496;SDS011;11925;48.122;11.560;2023-03-01T08:40:14;24.48;;;14.82;;
23496;SDS011;11925;48.122;11.560;2023-03-01T08:42:43;26.00;;;15.63;;
23496;SDS011;11925;48.122;11.560;2023-03-01T08:45:11;26.05;;;16.05;;
23496;SDS011;11925;48.122;11.560;2023-03-01T08:47:40;23.65;;;15.40;;
23496;SDS011;11925;48.122;11.560;2023-03-01T08:50:09;24.73;;;14.95;;
23496;SDS011;11925;48.122;11.560;2023-03-01T08:52:38;25.38;;;15.52;;
23496;SDS011;11925;48.122;11.560;2023-03-01T08:55:07;24.65;;;16.13;;
23496;SDS011;11925;48.122;11.560;2023-03-01T08:57:36;23.60;;;16.00;;
23496;SDS011;11925;48.122;11.560;2023-03-01T09:00:05;25.08;;;16.08;;
23496;SDS011;11925;48.122;11.560;2023-03-01T09:02:35;24.33;;;15.52;;
23496;SDS011;11925;48.122;11.560;2023-03-01T09:05:04;26.20;;;15.48;;
23496;SDS011;11925;48.122;11.560;2023-03-01T09:07:32;27.63;;;16.58;;
23496;SDS011;11925;48.122;11.560;2023-03-01T09:10:02;23.98;;;15.43;;
23496;SDS011;11925;48.122;11.560;2023-03-01T09:12:31;23.13;;;15.13;;
23496;SDS011;11925;48.122;11.560;2023-03-01T09:14:59;23.35;;;14.77;;
23496;SDS011;11925;48.122;11.560;2023-03-01T09:17:28;23.13;;;14.95;;
23496;SDS011;11925;48.122;11.560;2023-03-01T09:19:56;25.52;;;15.18;;
23496;SDS011;11925;48.122;11.560;2023-03-01T09:22:26;26.85;;;16.48;;
23496;SDS011;11925;48.122;11.560;2023-03-01T09:24:54;25.50;;;16.65;;
23496;SDS011;11925;48.122;11.560;2023-03-01T09:27:26;23.80;;;14.80;;
23496;SDS011;11925;48.122;11.560;2023-03-01T09:29:55;23.80;;;15.25;;
23496;SDS011;11925;48.122;11.560;2023-03-01T09:32:23;26.63;;;14.50;;
23496;SDS011;11925;48.122;11.560;2023-03-01T09:34:52;23.65;;;15.27;;
23496;SDS011;11925;48.122;11.560;2023-03-01T09:37:31;25.35;;;16.05;;
23496;SDS011;11925;48.122;11.560;2023-03-01T09:40:00;24.45;;;15.18;;
23496;SDS011;11925;48.122;11.560;2023-03-01T09:42:30;24.55;;;15.20;;
23496;SDS011;11925;48.122;11.560;2023-03-01T09:45:02;25.42;;;16.00;;
23496;SDS011;11925;48.122;11.560;2023-03-01T09:47:34;23.85;;;15.45;;
23496;SDS011;11925;48.122;11.560;2023-03-01T09:50:04;24.20;;;15.52;;
23496;SDS011;11925;48.122;11.560;2023-03-01T09:52:41;23.98;;;15.57;;
23496;SDS011;11925;48.122;11.560;2023-03-01T09:55:14;26.92;;;16.20;;
23496;SDS011;11925;48.122;11.560;2023-03-01T09:57:47;24.98;;;16.27;;
23496;SDS011;11925;48.122;11.560;2023-03-01T10:00:27;21.65;;;15.02;;
23496;SDS011;11925;48.122;11.560;2023-03-01T10:03:03;25.73;;;16.58;;
23496;SDS011;11925;48.122;11.560;2023-03-01T10:05:44;24.73;;;15.27;;
23496;SDS011;11925;48.122;11.560;2023-03-01T10:08:26;22.13;;;15.13;;
23496;SDS011;11925;48.122;11.560;2023-03-01T10:10:59;27.48;;;16.15;;
23496;SDS011;11925;48.122;11.560;2023-03-01T10:13:31;23.85;;;15.23;;
23496;SDS011;11925;48.122;11.560;2023-03-01T10:16:05;25.58;;;15.88;;
23496;SDS011;11925;48.122;11.560;2023-03-01T10:18:39;24.20;;;15.18;;
23496;SDS011;11925;48.122;11.560;2023-03-01T10:21:12;24.85;;;16.08;;
23496;SDS011;11925;48.122;11.560;2023-03-01T10:23:43;23.52;;;15.77;;
23496;SDS011;11925;48.122;11.560;2023-03-01T10:26:16;26.40;;;15.77;;
23496;SDS011;11925;48.122;11.560;2023-03-01T10:28:59;26.10;;;15.23;;
23496;SDS011;11925;48.122;11.560;2023-03-01T10:31:32;25.70;;;15.65;;
23496;SDS011;11925;48.122;11.560;2023-03-01T10:34:08;24.00;;;16.05;;
23496;SDS011;11925;48.122;11.560;2023-03-01T10:36:39;23.35;;;15.98;;
23496;SDS011;11925;48.122;11.560;2023-03-01T10:39:13;24.70;;;15.40;;
23496;SDS011;11925;48.122;11.560;2023-03-01T10:41:59;27.98;;;15.50;;
23496;SDS011;11925;48.122;11.560;2023-03-01T10:44:41;25.08;;;15.48;;
23496;SDS011;11925;48.122;11.560;2023-03-01T10:47:15;24.20;;;16.30;;
23496;SDS011;11925;48.122;11.560;2023-03-01T10:49:57;29.95;;;17.15;;
23496;SDS011;11925;48.122;11.560;2023-03-01T10:52:29;23.88;;;15.60;;
23496;SDS011;11925;48.122;11.560;2023-03-01T10:55:01;28.13;;;16.83;;
23496;SDS011;11925;48.122;11.560;2023-03-01T10:57:33;25.40;;;16.15;;
23496;SDS011;11925;48.122;11.560;2023-03-01T11:00:20;25.45;;;15.68;;
23496;SDS011;11925;48.122;11.560;2023-03-01T11:03:00;25.67;;;16.35;;
23496;SDS011;11925;48.122;11.560;2023-03-01T11:05:31;27.00;;;16.77;;
23496;SDS011;11925;48.122;11.560;2023-03-01T11:08:00;25.83;;;17.13;;
23496;SDS011;11925;48.122;11.560;2023-03-01T11:10:31;26.95;;;17.13;;
23496;SDS011;11925;48.122;11.560;2023-03-01T11:13:07;26.15;;;17.58;;
23496;SDS011;11925;48.122;11.560;2023-03-01T11:15:42;26.95;;;16.60;;
23496;SDS011;11925;48.122;11.560;2023-03-01T11:18:25;25.65;;;16.52;;
23496;SDS011;11925;48.122;11.560;2023-03-01T11:21:12;26.13;;;16.77;;
23496;SDS011;11925;48.122;11.560;2023-03-01T11:23:42;26.08;;;16.73;;
23496;SDS011;11925;48.122;11.560;2023-03-01T11:26:13;25.63;;;16.27;;
23496;SDS011;11925;48.122;11.560;2023-03-01T11:28:42;24.25;;;16.83;;
23496;SDS011;11925;48.122;11.560;2023-03-01T11:31:19;24.52;;;15.93;;
23496;SDS011;11925;48.122;11.560;2023-03-01T11:36:22;27.90;;;17.42;;
23496;SDS011;11925;48.122;11.560;2023-03-01T11:38:56;24.98;;;16.80;;
23496;SDS011;11925;48.122;11.560;2023-03-01T11:41:30;27.33;;;17.63;;
23496;SDS011;11925;48.122;11.560;2023-03-01T11:49:41;31.58;;;18.25;;
23496;SDS011;11925;48.122;11.560;2023-03-01T11:52:26;28.30;;;16.92;;
23496;SDS011;11925;48.122;11.560;2023-03-01T11:55:17;27.67;;;17.08;;
23496;SDS011;11925;48.122;11.560;2023-03-01T11:57:58;27.98;;;18.08;;
23496;SDS011;11925;48.122;11.560;2023-03-01T12:00:40;27.08;;;17.20;;
23496;SDS011;11925;48.122;11.560;2023-03-01T12:03:23;29.27;;;17.90;;
23496;SDS011;11925;48.122;11.560;2023-03-01T12:06:06;26.77;;;17.85;;
23496;SDS011;11925;48.122;11.560;2023-03-01T12:08:54;27.10;;;16.63;;
23496;SDS011;11925;48.122;11.560;2023-03-01T12:11:36;26.13;;;17.88;;
23496;SDS011;11925;48.122;11.560;2023-03-01T12:14:19;24.58;;;17.27;;
23496;SDS011;11925;48.122;11.560;2023-03-01T12:17:08;26.90;;;17.42;;
23496;SDS011;11925;48.122;11.560;2023-03-01T12:20:05;25.63;;;16.90;;
23496;SDS011;11925;48.122;11.560;2023-03-01T12:22:48;25.90;;;16.70;;
23496;SDS011;11925;48.122;11.560;2023-03-01T12:25:44;23.98;;;15.85;;
23496;SDS011;11925;48.122;11.560;2023-03-01T12:28:23;28.45;;;17.52;;
23496;SDS011;11925;48.122;11.560;2023-03-01T12:34:24;29.33;;;17.67;;
23496;SDS011;11925;48.122;11.560;2023-03-01T12:37:14;24.80;;;16.98;;
23496;SDS011;11925;48.122;11.560;2023-03-01T12:39:52;25.60;;;16.83;;
23496;SDS011;11925;48.122;11.560;2023-03-01T12:45:16;27.42;;;17.27;;
23496;SDS011;11925;48.122;11.560;2023-03-01T12:48:05;28.63;;;17.33;;
23496;SDS011;11925;48.122;11.560;2023-03-01T12:50:42;25.00;;;16.35;;
23496;SDS011;11925;48.122;11.560;2023-03-01T12:53:19;27.60;;;16.95;;
23496;SDS011;11925;48.122;11.560;2023-03-01T12:55:51;25.75;;;17.58;;
23496;SDS011;11925;48.122;11.560;2023-03-01T12:58:24;28.33;;;18.02;;
23496;SDS011;11925;48.122;11.560;2023-03-01T13:01:16;27.42;;;18.35;;
23496;SDS011;11925;48.122;11.560;2023-03-01T13:04:06;28.55;;;18.00;;
23496;SDS011;11925;48.122;11.560;2023-03-01T13:06:44;29.92;;;17.08;;
23496;SDS011;11925;48.122;11.560;2023-03-01T13:09:26;26.58;;;16.50;;
23496;SDS011;11925;48.122;11.560;2023-03-01T13:11:57;28.70;;;16.92;;
23496;SDS011;11925;48.122;11.560;2023-03-01T13:14:44;29.90;;;18.48;;
23496;SDS011;11925;48.122;11.560;2023-03-01T13:20:00;28.05;;;17.75;;
23496;SDS011;11925;48.122;11.560;2023-03-01T13:22:32;28.17;;;17.75;;
23496;SDS011;11925;48.122;11.560;2023-03-01T13:25:15;32.92;;;18.52;;
23496;SDS011;11925;48.122;11.560;2023-03-01T13:27:45;32.28;;;18.70;;
23496;SDS011;11925;48.122;11.560;2023-03-01T13:39:27;29.00;;;18.42;;
23496;SDS011;11925;48.122;11.560;2023-03-01T13:44:30;28.92;;;17.40;;
23496;SDS011;11925;48.122;11.560;2023-03-01T13:47:05;27.83;;;18.00;;
23496;SDS011;11925;48.122;11.560;2023-03-01T13:49:45;26.88;;;17.67;;
23496;SDS011;11925;48.122;11.560;2023-03-01T13:52:35;30.00;;;17.60;;
23496;SDS011;11925;48.122;11.560;2023-03-01T13:55:14;27.55;;;18.23;;
23496;SDS011;11925;48.122;11.560;2023-03-01T13:57:47;29.80;;;17.98;;
23496;SDS011;11925;48.122;11.560;2023-03-01T14:00:30;27.35;;;18.17;;
23496;SDS011;11925;48.122;11.560;2023-03-01T14:03:04;29.65;;;17.85;;
23496;SDS011;11925;48.122;11.560;2023-03-01T14:05:37;28.15;;;17.25;;
23496;SDS011;11925;48.122;11.560;2023-03-01T14:08:21;30.92;;;18.75;;
23496;SDS011;11925;48.122;11.560;2023-03-01T14:10:58;28.85;;;17.27;;
23496;SDS011;11925;48.122;11.560;2023-03-01T14:13:51;28.60;;;17.50;;
23496;SDS011;11925;48.122;11.560;2023-03-01T14:16:31;27.73;;;18.58;;
23496;SDS011;11925;48.122;11.560;2023-03-01T14:19:14;28.17;;;17.45;;
23496;SDS011;11925;48.122;11.560;2023-03-01T14:21:58;30.25;;;18.58;;
23496;SDS011;11925;48.122;11.560;2023-03-01T14:24:40;30.02;;;18.58;;
23496;SDS011;11925;48.122;11.560;2023-03-01T14:27:15;28.83;;;18.38;;
23496;SDS011;11925;48.122;11.560;2023-03-01T14:29:55;29.63;;;18.17;;
23496;SDS011;11925;48.122;11.560;2023-03-01T14:32:25;26.95;;;16.33;;
23496;SDS011;11925;48.122;11.560;2023-03-01T14:34:56;27.75;;;18.00;;
23496;SDS011;11925;48.122;11.560;2023-03-01T14:37:26;26.35;;;17.30;;
23496;SDS011;11925;48.122;11.560;2023-03-01T14:39:56;27.90;;;18.33;;
23496;SDS011;11925;48.122;11.560;2023-03-01T14:42:29;28.65;;;17.25;;
23496;SDS011;11925;48.122;11.560;2023-03-01T14:45:03;30.58;;;17.95;;
23496;SDS011;11925;48.122;11.560;2023-03-01T14:47:34;26.15;;;16.80;;
23496;SDS011;11925;48.122;11.560;2023-03-01T14:50:06;26.03;;;17.03;;
23496;SDS011;11925;48.122;11.560;2023-03-01T14:52:37;28.00;;;17.77;;
23496;SDS011;11925;48.122;11.560;2023-03-01T14:55:13;28.50;;;17.73;;
23496;SDS011;11925;48.122;11.560;2023-03-01T14:57:45;28.05;;;17.15;;
23496;SDS011;11925;48.122;11.560;2023-03-01T15:00:17;26.95;;;16.75;;
23496;SDS011;11925;48.122;11.560;2023-03-01T15:02:47;26.27;;;16.67;;
23496;SDS011;11925;48.122;11.560;2023-03-01T15:05:18;26.00;;;17.03;;
23496;SDS011;11925;48.122;11.560;2023-03-01T15:07:53;25.30;;;17.45;;
23496;SDS011;11925;48.122;11.560;2023-03-01T15:10:24;25.60;;;16.83;;